createdAt,value
2019-05-10T00:04:10.386Z,3.07
2019-05-10T00:08:31.013Z,3.30
2019-05-10T00:12:44.657Z,3.07
2019-05-10T00:16:48.453Z,3.13
2019-05-10T00:20:51.021Z,3.47
2019-05-10T00:25:03.925Z,3.80
2019-05-10T00:28:58.094Z,3.30
2019-05-10T00:33:00.619Z,3.20
2019-05-10T00:37:03.330Z,4.30
2019-05-10T00:41:05.867Z,3.57
2019-05-10T00:45:08.580Z,3.17
2019-05-10T00:49:11.131Z,3.30
2019-05-10T00:53:13.670Z,3.50
2019-05-10T00:57:16.259Z,3.70
2019-05-10T01:01:20.549Z,3.73
2019-05-10T01:05:24.490Z,4.00
2019-05-10T01:09:27.034Z,4.20
2019-05-10T01:13:29.551Z,2.90
2019-05-10T01:17:32.165Z,3.67
2019-05-10T01:21:34.777Z,3.10
2019-05-10T01:25:37.365Z,3.13
2019-05-10T01:29:39.933Z,3.83
2019-05-10T01:33:42.504Z,3.57
2019-05-10T01:37:45.086Z,4.23
2019-05-10T01:41:49.432Z,4.63
2019-05-10T01:45:51.962Z,4.97
2019-05-10T01:49:54.512Z,3.70
2019-05-10T01:53:57.145Z,4.43
2019-05-10T01:57:59.738Z,5.57
2019-05-10T02:02:06.900Z,5.60
2019-05-10T02:06:09.465Z,5.50
2019-05-10T02:10:12.247Z,6.90
2019-05-10T02:14:14.821Z,6.27
2019-05-10T02:18:17.406Z,5.20
2019-05-10T02:22:20.043Z,6.27
2019-05-10T02:26:22.578Z,6.37
2019-05-10T02:30:26.757Z,7.07
2019-05-10T02:34:29.598Z,6.67
2019-05-10T02:38:32.163Z,6.13
2019-05-10T02:42:34.718Z,6.97
2019-05-10T02:46:45.807Z,5.93
2019-05-10T02:50:51.005Z,6.80
2019-05-10T02:54:53.757Z,19.53
2019-05-10T02:58:57.872Z,6.80
2019-05-10T03:03:02.190Z,8.10
2019-05-10T03:07:05.725Z,6.37
2019-05-10T03:11:10.143Z,6.30
2019-05-10T03:15:13.070Z,6.37
2019-05-10T03:19:18.135Z,5.83
2019-05-10T03:23:21.239Z,6.50
2019-05-10T03:27:25.598Z,6.07
2019-05-10T03:31:28.230Z,6.60
2019-05-10T03:35:30.921Z,6.80
2019-05-10T03:39:33.469Z,6.70
2019-05-10T03:43:37.543Z,7.07
2019-05-10T03:47:40.088Z,7.20
2019-05-10T03:51:42.675Z,7.10
2019-05-10T03:55:45.224Z,7.27
2019-05-10T03:59:51.324Z,7.07
2019-05-10T04:03:54.005Z,7.10
2019-05-10T04:08:01.908Z,7.10
2019-05-10T04:12:04.685Z,7.70
2019-05-10T04:16:09.121Z,7.50
2019-05-10T04:20:11.781Z,6.63
2019-05-10T04:24:14.300Z,7.60
2019-05-10T04:28:16.862Z,7.13
2019-05-10T04:32:19.788Z,7.00
2019-05-10T04:36:22.360Z,8.07
2019-05-10T04:40:26.435Z,7.60
2019-05-10T04:44:28.975Z,10.80
2019-05-10T04:48:31.526Z,10.33
2019-05-10T04:52:34.211Z,10.60
2019-05-10T04:56:36.787Z,10.77
2019-05-10T05:00:42.136Z,9.43
2019-05-10T05:04:44.811Z,8.57
2019-05-10T05:08:47.390Z,8.07
2019-05-10T05:12:50.317Z,8.17
2019-05-10T05:16:56.075Z,8.00
2019-05-10T05:20:59.030Z,9.03
2019-05-10T05:25:03.676Z,9.17
2019-05-10T05:29:06.035Z,11.50
2019-05-10T05:33:08.563Z,11.37
2019-05-10T05:37:12.447Z,12.00
2019-05-10T05:41:16.233Z,12.07
2019-05-10T05:45:18.853Z,11.93
2019-05-10T05:49:21.389Z,12.20
2019-05-10T05:53:23.930Z,11.73
2019-05-10T05:57:27.706Z,12.17
2019-05-10T06:01:31.041Z,12.33
2019-05-10T06:05:37.122Z,14.00
2019-05-10T06:09:39.403Z,14.07
2019-05-10T06:13:42.084Z,13.77
2019-05-10T06:17:44.690Z,14.00
2019-05-10T06:21:47.183Z,13.90
2019-05-10T06:25:52.560Z,13.83
2019-05-10T06:30:01.195Z,13.13
2019-05-10T06:34:03.774Z,14.27
2019-05-10T06:38:06.345Z,14.63
2019-05-10T06:42:08.913Z,15.40
2019-05-10T06:46:11.431Z,15.50
2019-05-10T06:50:14.293Z,15.10
2019-05-10T06:54:17.053Z,15.43
2019-05-10T06:58:19.766Z,14.90
2019-05-10T07:02:26.133Z,16.63
2019-05-10T07:06:28.434Z,15.60
2019-05-10T07:10:33.822Z,17.83
2019-05-10T07:14:35.352Z,19.60
2019-05-10T07:18:37.902Z,19.97
2019-05-10T07:22:45.263Z,23.03
2019-05-10T07:26:47.759Z,25.00
2019-05-10T07:30:54.948Z,26.10
2019-05-10T07:35:00.781Z,28.43
2019-05-10T07:39:08.439Z,31.50
2019-05-10T07:43:10.681Z,33.80
2019-05-10T07:47:14.039Z,20.20
2019-05-10T07:51:16.665Z,16.57
2019-05-10T07:55:27.935Z,14.43
2019-05-10T07:59:29.128Z,11.63
2019-05-10T08:03:29.854Z,9.53
2019-05-10T08:07:32.542Z,8.80
2019-05-10T08:11:38.930Z,7.10
2019-05-10T08:15:41.461Z,6.30
2019-05-10T08:19:44.057Z,6.60
2019-05-10T08:23:46.671Z,7.50
2019-05-10T08:27:54.598Z,6.20
2019-05-10T08:32:03.023Z,7.70
2019-05-10T08:36:05.733Z,5.67
2019-05-10T08:40:08.362Z,5.50
2019-05-10T08:44:19.498Z,5.47
2019-05-10T08:48:17.078Z,5.90
2019-05-10T08:52:26.942Z,6.33
2019-05-10T08:56:24.349Z,5.60
2019-05-10T09:00:41.662Z,7.13
2019-05-10T09:04:41.674Z,6.87
2019-05-10T09:08:38.047Z,6.90
2019-05-10T09:12:41.778Z,7.43
2019-05-10T09:16:56.296Z,7.80
2019-05-10T09:20:51.408Z,8.40
2019-05-10T09:24:53.763Z,8.87
2019-05-10T09:28:57.809Z,9.30
2019-05-10T09:33:08.314Z,9.03
2019-05-10T09:37:08.097Z,8.77
2019-05-10T09:41:11.768Z,9.67
2019-05-10T09:45:13.711Z,9.53
2019-05-10T09:49:18.548Z,9.93
2019-05-10T09:53:26.198Z,10.40
2019-05-10T09:57:27.713Z,10.63
2019-05-10T10:01:29.766Z,9.23
2019-05-10T10:05:32.330Z,4.80
2019-05-10T10:09:42.035Z,5.47
2019-05-10T10:13:43.982Z,6.17
2019-05-10T10:17:47.607Z,6.87
2019-05-10T10:21:52.800Z,5.97
2019-05-10T10:25:57.780Z,3.67
2019-05-10T10:29:59.690Z,2.80
2019-05-10T10:34:03.278Z,3.47
2019-05-10T10:38:08.079Z,2.60
2019-05-10T10:42:13.105Z,2.50
2019-05-10T10:46:17.584Z,2.43
2019-05-10T10:50:19.037Z,2.20
2019-05-10T10:54:22.604Z,2.73
2019-05-10T10:58:27.567Z,2.80
2019-05-10T11:02:33.714Z,3.30
2019-05-10T11:06:34.819Z,3.00
2019-05-10T11:10:40.559Z,3.50
2019-05-10T11:14:45.452Z,3.40
2019-05-10T11:18:47.952Z,2.90
2019-05-10T11:22:53.396Z,2.53
2019-05-10T11:26:54.958Z,3.00
2019-05-10T11:30:57.637Z,2.40
2019-05-10T11:35:00.338Z,2.37
2019-05-10T11:39:05.968Z,2.00
2019-05-10T11:43:08.820Z,2.47
2019-05-10T11:47:22.918Z,2.37
2019-05-10T11:55:21.627Z,2.00
2019-05-10T11:59:03.904Z,2.00
2019-05-10T11:59:33.891Z,1.37
2019-05-10T12:03:32.077Z,1.67
2019-05-10T12:07:42.702Z,1.80
2019-05-10T12:11:43.743Z,1.90
2019-05-10T12:15:43.425Z,2.20
2019-05-10T12:19:50.457Z,1.93
2019-05-10T12:23:56.002Z,1.83
2019-05-10T12:27:55.921Z,1.90
2019-05-10T12:32:01.320Z,1.50
2019-05-10T12:36:04.005Z,1.30
2019-05-10T12:40:11.950Z,1.30
2019-05-10T12:44:11.298Z,1.30
2019-05-10T12:48:14.065Z,1.30
2019-05-10T12:52:21.162Z,2.00
2019-05-10T12:56:22.798Z,1.50
2019-05-10T13:00:25.358Z,2.00
2019-05-10T13:04:40.243Z,2.10
2019-05-10T13:08:32.221Z,2.20
2019-05-10T13:12:36.921Z,2.43
2019-05-10T13:16:39.462Z,2.37
2019-05-10T13:20:42.155Z,2.13
2019-05-10T13:24:47.735Z,2.30
2019-05-10T13:28:55.356Z,2.80
2019-05-10T13:32:58.522Z,2.80
2019-05-10T13:37:00.451Z,2.00
2019-05-10T13:41:04.917Z,1.73
2019-05-10T13:45:10.807Z,1.50
2019-05-10T13:49:13.491Z,1.70
2019-05-10T13:53:20.862Z,1.50
2019-05-10T13:57:24.562Z,1.90
2019-05-10T14:01:24.858Z,1.70
2019-05-10T14:05:28.554Z,1.33
2019-05-10T14:09:31.166Z,1.90
2019-05-10T14:13:35.642Z,1.30
2019-05-10T14:17:39.352Z,1.80
2019-05-10T14:21:44.909Z,1.57
2019-05-10T14:25:47.453Z,1.60
2019-05-10T14:29:49.976Z,1.93
2019-05-10T14:34:15.747Z,1.60
2019-05-10T14:38:07.195Z,1.80
2019-05-10T14:42:03.775Z,2.20
2019-05-10T14:46:13.613Z,1.73
2019-05-10T14:50:19.192Z,2.03
2019-05-10T14:54:18.894Z,2.03
2019-05-10T14:58:21.423Z,1.97
2019-05-10T15:02:25.125Z,1.80
2019-05-10T15:06:30.730Z,1.63
2019-05-10T15:10:39.245Z,2.30
2019-05-10T15:14:38.578Z,1.77
2019-05-10T15:18:42.484Z,1.60
2019-05-10T15:22:45.878Z,1.57
2019-05-10T15:26:48.424Z,2.13
2019-05-10T15:30:52.577Z,1.97
2019-05-10T15:35:06.178Z,1.80
2019-05-10T15:38:59.701Z,2.00
2019-05-10T15:43:04.257Z,2.50
2019-05-10T15:47:14.322Z,1.33
2019-05-10T15:55:26.631Z,1.77
2019-05-10T15:59:22.197Z,1.90
2019-05-10T15:59:23.402Z,2.20
2019-05-10T16:03:24.744Z,1.70
2019-05-10T16:07:27.333Z,2.13
2019-05-10T16:11:29.903Z,2.53
2019-05-10T16:15:33.546Z,2.00
2019-05-10T16:19:37.110Z,1.47
2019-05-10T16:23:41.497Z,2.33
2019-05-10T16:27:44.895Z,2.50
2019-05-10T16:31:48.818Z,2.00
2019-05-10T16:35:52.087Z,1.90
2019-05-10T16:39:54.891Z,1.83
2019-05-10T16:43:59.987Z,2.03
2019-05-10T16:48:05.570Z,2.53
2019-05-10T16:52:06.578Z,2.60
2019-05-10T16:56:13.275Z,2.10
2019-05-10T17:00:13.709Z,2.33
2019-05-10T17:04:16.374Z,2.47
2019-05-10T17:08:18.966Z,2.40
2019-05-10T17:12:21.936Z,2.23
2019-05-10T17:16:26.031Z,1.97
2019-05-10T17:20:28.606Z,2.57
2019-05-10T17:24:31.263Z,2.47
2019-05-10T17:28:35.380Z,2.73
2019-05-10T17:32:38.641Z,2.20
2019-05-10T17:36:41.261Z,2.37
2019-05-10T17:40:48.077Z,1.93
2019-05-10T17:44:48.187Z,2.40
2019-05-10T17:48:50.748Z,2.30
2019-05-10T17:52:53.378Z,2.60
2019-05-10T17:56:55.947Z,2.40
2019-05-10T18:00:58.554Z,2.60
2019-05-10T18:05:06.344Z,2.27
2019-05-10T18:09:06.111Z,2.60
2019-05-10T18:13:08.983Z,3.03
2019-05-10T18:17:11.556Z,2.30
2019-05-10T18:21:15.806Z,2.73
2019-05-10T18:25:20.263Z,2.13
2019-05-10T18:29:22.891Z,2.40
2019-05-10T18:33:26.569Z,2.90
2019-05-10T18:37:29.199Z,2.40
2019-05-10T18:41:31.753Z,3.00
2019-05-10T18:45:34.426Z,2.20
2019-05-10T18:49:36.970Z,2.57
2019-05-10T18:53:39.551Z,2.33
2019-05-10T18:57:45.303Z,2.33
2019-05-10T19:01:46.547Z,2.70
2019-05-10T19:05:49.161Z,3.30
2019-05-10T19:09:51.780Z,2.57
2019-05-10T19:13:54.612Z,2.90
2019-05-10T19:17:59.053Z,3.10
2019-05-10T19:22:08.059Z,2.90
2019-05-10T19:26:07.209Z,2.43
2019-05-10T19:30:09.989Z,3.40
2019-05-10T19:34:15.586Z,2.80
2019-05-10T19:38:16.923Z,2.50
2019-05-10T19:42:19.549Z,2.70
2019-05-10T19:46:22.134Z,2.70
2019-05-10T19:50:30.987Z,2.33
2019-05-10T19:54:31.081Z,2.93
2019-05-10T19:58:34.033Z,2.73
2019-05-10T20:02:36.611Z,2.80
2019-05-10T20:06:39.198Z,2.60
2019-05-10T20:10:41.767Z,2.40
2019-05-10T20:14:48.825Z,2.70
2019-05-10T20:18:51.367Z,3.33
2019-05-10T20:22:53.921Z,3.13
2019-05-10T20:26:56.478Z,3.20
2019-05-10T20:30:59.027Z,2.97
2019-05-10T20:35:03.372Z,3.70
2019-05-10T20:39:06.599Z,4.30
2019-05-10T20:43:09.189Z,3.63
2019-05-10T20:47:11.752Z,4.57
2019-05-10T20:51:14.339Z,3.80
2019-05-10T20:55:17.212Z,4.40
2019-05-10T20:59:19.867Z,4.10
2019-05-10T21:03:23.755Z,4.30
2019-05-10T21:07:26.327Z,3.77
2019-05-10T21:11:28.854Z,3.83
2019-05-10T21:15:32.236Z,4.53
2019-05-10T21:19:34.799Z,4.50
2019-05-10T21:23:39.384Z,4.00
2019-05-10T21:27:41.915Z,4.30
2019-05-10T21:31:44.502Z,3.60
2019-05-10T21:35:48.916Z,3.70
2019-05-10T21:39:51.483Z,4.10
2019-05-10T21:43:54.093Z,3.40
2019-05-10T21:47:58.407Z,4.00
2019-05-10T21:52:01.028Z,3.90
2019-05-10T21:56:03.556Z,4.10
2019-05-10T22:00:07.571Z,4.23
2019-05-10T22:04:10.122Z,4.83
2019-05-10T22:08:12.674Z,4.30
2019-05-10T22:12:15.213Z,5.00
2019-05-10T22:16:17.794Z,4.27
2019-05-10T22:20:21.713Z,4.50
2019-05-10T22:24:24.316Z,4.87
2019-05-10T22:28:31.056Z,4.80
2019-05-10T22:32:33.761Z,4.53
2019-05-10T22:36:38.199Z,4.27
2019-05-10T22:40:40.749Z,4.60
2019-05-10T22:44:44.390Z,5.07
2019-05-10T22:48:47.071Z,5.10
2019-05-10T22:52:49.641Z,4.47
2019-05-10T22:56:52.232Z,4.67
2019-05-10T23:00:54.815Z,5.50
2019-05-10T23:04:57.393Z,5.50
2019-05-10T23:08:59.982Z,5.37
2019-05-10T23:13:02.553Z,5.03
2019-05-10T23:17:05.301Z,4.27
2019-05-10T23:21:07.874Z,4.70
2019-05-10T23:25:10.634Z,4.80
2019-05-10T23:29:13.269Z,4.60
2019-05-10T23:33:15.843Z,4.50
2019-05-10T23:37:18.650Z,5.50
2019-05-10T23:41:21.267Z,4.70
2019-05-10T23:45:23.812Z,4.83
2019-05-10T23:49:28.218Z,5.03
2019-05-10T23:53:30.838Z,5.07
2019-05-10T23:57:33.415Z,4.50
